Time;durP1;ratioP1;P1;durP2;ratioP2;P2;SDS_P1;SDS_P2;PMS_P1;PMS_P2;Temp;Humidity;BMP_temperature;BMP_pressure;BME280_temperature;BME280_humidity;BME280_pressure;Samples;Min_cycle;Max_cycle;Signal;HPM_P1;HPM_P2
2022/01/24 00:01:06;;;;;;;1.37;1.17;;;8.90;73.40;;;;;;878539;160;27455;-79
2022/01/24 00:03:33;;;;;;;0.80;0.80;;;8.90;73.40;;;;;;879199;160;27500;-79
2022/01/24 00:05:59;;;;;;;1.10;1.00;;;8.90;73.50;;;;;;878118;160;27485;-79
2022/01/24 00:08:26;;;;;;;0.90;0.90;;;8.90;73.50;;;;;;877717;160;27394;-80
2022/01/24 00:10:54;;;;;;;1.00;1.00;;;8.90;73.50;;;;;;878076;160;27504;-79
2022/01/24 00:14:08;;;;;;;0.90;0.90;;;8.90;73.50;;;;;;877390;160;27537;-79
2022/01/24 00:16:00;;;;;;;0.60;0.60;;;8.90;73.60;;;;;;876382;160;27572;-80
2022/01/24 00:26:39;;;;;;;0.60;0.60;;;8.90;73.50;;;;;;877778;160;27614;-80
2022/01/24 00:29:00;;;;;;;0.90;0.90;;;8.90;73.50;;;;;;878204;160;27644;-80
2022/01/24 00:31:27;;;;;;;0.70;0.70;;;8.90;73.50;;;;;;878410;160;27475;-80
2022/01/24 00:33:53;;;;;;;0.67;0.67;;;8.90;73.70;;;;;;877603;160;27492;-80
2022/01/24 00:36:20;;;;;;;0.60;0.60;;;8.80;73.60;;;;;;878368;160;27603;-80
2022/01/24 00:38:47;;;;;;;0.60;0.60;;;8.80;73.60;;;;;;877810;160;27480;-79
2022/01/24 00:41:16;;;;;;;0.60;0.60;;;8.80;73.70;;;;;;878355;160;27440;-80
2022/01/24 00:46:29;;;;;;;0.90;0.90;;;8.80;73.80;;;;;;878787;160;27509;-80
2022/01/24 00:54:42;;;;;;;0.80;0.80;;;8.80;73.80;;;;;;877709;160;27508;-80
2022/01/24 00:56:29;;;;;;;0.60;0.60;;;8.80;73.80;;;;;;876390;160;27599;-79
2022/01/24 00:58:55;;;;;;;0.60;0.60;;;8.80;73.80;;;;;;878978;160;27437;-80
2022/01/24 01:01:22;;;;;;;0.83;0.83;;;8.80;73.80;;;;;;878372;160;27450;-79
2022/01/24 01:03:49;;;;;;;0.50;0.50;;;8.80;73.90;;;;;;878344;160;27483;-79
2022/01/24 01:06:15;;;;;;;0.70;0.70;;;8.80;73.90;;;;;;877724;160;27553;-78
2022/01/24 01:19:40;;;;;;;1.03;0.83;;;8.80;73.80;;;;;;878604;160;27444;-80
2022/01/24 01:22:07;;;;;;;1.67;0.67;;;8.80;73.80;;;;;;877912;160;27439;-80
2022/01/24 01:24:43;;;;;;;0.70;0.70;;;8.80;73.80;;;;;;878057;160;27518;-80
2022/01/24 01:27:09;;;;;;;0.73;0.73;;;8.80;73.80;;;;;;878336;160;27524;-80
2022/01/24 01:29:43;;;;;;;0.63;0.63;;;8.70;73.90;;;;;;878496;160;28450;-80
2022/01/24 01:40:31;;;;;;;0.73;0.73;;;8.70;73.90;;;;;;874966;161;27512;-80
2022/01/24 01:56:09;;;;;;;0.57;0.57;;;8.60;73.90;;;;;;969522;147;27409;-79
2022/01/24 01:58:36;;;;;;;1.90;0.70;;;8.60;74.10;;;;;;968640;147;27843;-80
2022/01/24 02:01:02;;;;;;;0.73;0.73;;;8.60;74.00;;;;;;968745;147;27393;-78
2022/01/24 02:03:29;;;;;;;0.70;0.70;;;8.60;73.90;;;;;;969955;147;27441;-76
2022/01/24 02:05:55;;;;;;;0.60;0.60;;;8.60;74.00;;;;;;968803;147;27320;-75
2022/01/24 02:08:22;;;;;;;0.60;0.60;;;8.60;74.00;;;;;;969372;147;27328;-80
2022/01/24 02:10:48;;;;;;;0.50;0.50;;;8.60;74.10;;;;;;966327;147;27804;-77
2022/01/24 02:13:15;;;;;;;0.67;0.67;;;8.60;74.10;;;;;;968371;147;27324;-77
2022/01/24 02:23:42;;;;;;;0.93;0.90;;;8.70;74.20;;;;;;967158;147;27362;-81
2022/01/24 02:26:05;;;;;;;0.70;0.70;;;8.70;74.40;;;;;;967795;144;27452;-81
2022/01/24 02:28:45;;;;;;;1.07;0.70;;;8.70;74.30;;;;;;969559;147;27334;-77
2022/01/24 02:31:24;;;;;;;1.20;0.73;;;8.70;74.30;;;;;;968270;144;27327;-75
2022/01/24 02:33:36;;;;;;;0.70;0.60;;;8.70;74.30;;;;;;970573;145;27422;-77
2022/01/24 02:36:03;;;;;;;0.60;0.60;;;8.70;74.30;;;;;;970597;147;27348;-74
2022/01/24 02:38:50;;;;;;;0.47;0.47;;;8.70;74.20;;;;;;969189;144;27365;-78
2022/01/24 02:49:31;;;;;;;0.57;0.57;;;8.70;74.30;;;;;;965999;148;27282;-74
2022/01/24 02:52:09;;;;;;;0.83;0.50;;;8.70;74.20;;;;;;962245;148;27333;-80
2022/01/24 02:54:36;;;;;;;0.63;0.63;;;8.70;74.10;;;;;;964279;148;27712;-79
2022/01/24 02:57:05;;;;;;;0.60;0.60;;;8.70;74.00;;;;;;964088;145;27346;-80
2022/01/24 02:59:32;;;;;;;0.70;0.70;;;8.70;74.00;;;;;;965560;148;27666;-77
2022/01/24 03:01:59;;;;;;;0.70;0.70;;;8.70;74.00;;;;;;964141;148;27322;-79
2022/01/24 03:04:25;;;;;;;1.10;1.00;;;8.70;74.10;;;;;;965932;148;27266;-74
2022/01/24 03:06:52;;;;;;;0.60;0.60;;;8.70;74.00;;;;;;961424;148;27337;-79
2022/01/24 03:09:18;;;;;;;0.43;0.43;;;8.60;74.10;;;;;;965434;148;27321;-79
2022/01/24 03:14:17;;;;;;;0.67;0.63;;;8.70;74.10;;;;;;964633;148;27305;-78
2022/01/24 03:16:46;;;;;;;0.60;0.60;;;8.70;74.10;;;;;;964675;148;27398;-73
2022/01/24 03:19:16;;;;;;;0.47;0.47;;;8.60;74.10;;;;;;962626;148;28394;-79
2022/01/24 03:21:43;;;;;;;0.43;0.43;;;8.60;74.10;;;;;;964083;148;27234;-80
2022/01/24 03:24:09;;;;;;;0.50;0.50;;;8.60;74.10;;;;;;965992;147;27387;-75
2022/01/24 03:26:35;;;;;;;0.70;0.67;;;8.60;74.20;;;;;;965025;148;27297;-74
2022/01/24 03:29:02;;;;;;;0.90;0.73;;;8.70;74.20;;;;;;964943;148;27418;-76
2022/01/24 03:31:28;;;;;;;0.50;0.50;;;8.70;74.20;;;;;;962920;148;27339;-80
2022/01/24 03:33:55;;;;;;;0.70;0.70;;;8.70;74.20;;;;;;963487;145;27331;-78
2022/01/24 03:36:22;;;;;;;0.60;0.60;;;8.70;74.30;;;;;;963051;148;27358;-80
2022/01/24 03:38:48;;;;;;;0.50;0.50;;;8.70;74.20;;;;;;965307;148;27389;-76
2022/01/24 03:41:15;;;;;;;0.50;0.50;;;8.70;74.10;;;;;;962618;148;27380;-79
2022/01/24 03:43:41;;;;;;;0.60;0.60;;;8.70;74.10;;;;;;961048;148;27876;-76
2022/01/24 03:48:50;;;;;;;0.70;0.70;;;8.70;74.10;;;;;;965861;144;27345;-79
2022/01/24 03:51:13;;;;;;;0.60;0.60;;;8.70;73.90;;;;;;965997;147;27428;-77
2022/01/24 03:53:40;;;;;;;0.57;0.57;;;8.70;73.90;;;;;;967774;147;27346;-69
2022/01/24 03:56:06;;;;;;;0.50;0.50;;;8.70;73.90;;;;;;966959;145;27338;-67
2022/01/24 03:58:36;;;;;;;1.07;0.60;;;8.60;73.80;;;;;;967490;145;27250;-73
2022/01/24 04:01:02;;;;;;;0.70;0.70;;;8.60;73.90;;;;;;968178;147;27309;-73
2022/01/24 04:03:29;;;;;;;0.60;0.60;;;8.60;74.10;;;;;;968066;147;27334;-72
2022/01/24 04:05:55;;;;;;;0.70;0.70;;;8.60;74.10;;;;;;968270;147;27909;-72
2022/01/24 04:08:22;;;;;;;0.90;0.90;;;8.60;74.20;;;;;;966227;146;27408;-72
2022/01/24 04:10:53;;;;;;;0.80;0.80;;;8.60;74.10;;;;;;968562;147;27305;-72
2022/01/24 04:13:34;;;;;;;1.07;0.97;;;8.60;74.10;;;;;;965162;147;27412;-72
2022/01/24 04:16:25;;;;;;;0.73;0.60;;;8.60;74.00;;;;;;967860;146;27441;-72
2022/01/24 04:24:05;;;;;;;0.70;0.70;;;8.60;74.00;;;;;;966381;147;27335;-73
2022/01/24 04:26:24;;;;;;;0.60;0.60;;;8.60;74.00;;;;;;967056;144;27258;-73
2022/01/24 04:28:51;;;;;;;0.60;0.60;;;8.60;74.10;;;;;;968480;147;27339;-72
2022/01/24 04:31:17;;;;;;;0.73;0.73;;;8.60;74.10;;;;;;968358;146;27409;-72
2022/01/24 04:33:44;;;;;;;0.73;0.73;;;8.50;74.00;;;;;;964982;147;27362;-72
2022/01/24 04:36:10;;;;;;;0.67;0.67;;;8.60;74.10;;;;;;967352;146;27831;-73
2022/01/24 04:38:37;;;;;;;0.80;0.80;;;8.60;74.00;;;;;;967339;147;27273;-73
2022/01/24 04:41:12;;;;;;;0.77;0.77;;;8.60;73.90;;;;;;966860;147;27374;-72
2022/01/24 04:43:52;;;;;;;0.80;0.80;;;8.60;73.90;;;;;;967541;147;27313;-72
2022/01/24 04:46:14;;;;;;;1.13;0.70;;;8.60;73.90;;;;;;964204;147;27364;-72
2022/01/24 04:51:32;;;;;;;0.70;0.70;;;8.50;73.90;;;;;;965908;148;27402;-72
2022/01/24 04:53:54;;;;;;;0.70;0.70;;;8.50;73.90;;;;;;963179;148;27367;-73
2022/01/24 04:56:09;;;;;;;0.53;0.53;;;8.50;73.90;;;;;;963391;146;27437;-72
2022/01/24 04:58:36;;;;;;;0.70;0.70;;;8.50;74.00;;;;;;966964;148;27390;-72
2022/01/24 05:01:02;;;;;;;1.80;1.13;;;8.50;74.00;;;;;;965060;148;27409;-72
2022/01/24 05:03:29;;;;;;;0.97;0.97;;;8.50;74.10;;;;;;965172;148;27493;-72
2022/01/24 05:05:56;;;;;;;0.97;0.97;;;8.50;74.10;;;;;;966679;148;27426;-72
2022/01/24 05:08:22;;;;;;;0.90;0.90;;;8.50;74.10;;;;;;965226;148;27320;-72
2022/01/24 05:11:05;;;;;;;0.90;0.90;;;8.50;74.10;;;;;;967224;148;27383;-72
2022/01/24 05:24:23;;;;;;;2.00;1.13;;;8.50;74.10;;;;;;965608;148;27345;-72
2022/01/24 05:26:49;;;;;;;1.17;1.17;;;8.50;74.20;;;;;;964580;148;27241;-73
2022/01/24 05:29:16;;;;;;;1.00;1.00;;;8.50;74.10;;;;;;963374;148;27867;-72
2022/01/24 05:31:43;;;;;;;1.27;1.20;;;8.50;73.90;;;;;;966099;148;27299;-72
2022/01/24 05:34:09;;;;;;;1.27;0.80;;;8.50;73.90;;;;;;966271;146;27422;-72
2022/01/24 05:36:36;;;;;;;1.03;1.03;;;8.50;73.90;;;;;;964482;145;27350;-72
2022/01/24 05:39:02;;;;;;;1.37;1.27;;;8.50;74.00;;;;;;964946;148;27324;-72
2022/01/24 05:41:29;;;;;;;1.10;1.10;;;8.40;73.90;;;;;;966779;148;27448;-72
2022/01/24 05:43:56;;;;;;;1.20;1.20;;;8.50;74.10;;;;;;964735;148;27319;-72
2022/01/24 05:46:22;;;;;;;1.20;1.20;;;8.50;74.00;;;;;;963482;148;27756;-72
2022/01/24 05:48:49;;;;;;;1.20;1.10;;;8.50;74.00;;;;;;968786;145;27372;-72
2022/01/24 05:51:15;;;;;;;1.13;1.13;;;8.50;74.00;;;;;;980301;145;27324;-72
2022/01/24 05:53:45;;;;;;;1.00;1.00;;;8.50;74.00;;;;;;983461;145;27317;-72
2022/01/24 05:56:11;;;;;;;1.50;1.40;;;8.50;74.00;;;;;;981257;145;27819;-72
2022/01/24 05:58:38;;;;;;;2.87;2.30;;;8.50;74.00;;;;;;981553;145;27279;-73
2022/01/24 06:01:05;;;;;;;3.20;2.53;;;8.50;74.00;;;;;;980440;145;27257;-72
2022/01/24 06:03:31;;;;;;;4.20;2.73;;;8.50;74.00;;;;;;982145;145;27250;-72
2022/01/24 06:05:58;;;;;;;4.17;2.60;;;8.50;74.10;;;;;;980153;145;28471;-72
2022/01/24 06:08:24;;;;;;;1.93;1.83;;;8.50;74.00;;;;;;980028;145;27709;-73
2022/01/24 06:10:53;;;;;;;1.77;1.57;;;8.50;74.00;;;;;;981484;145;27227;-72
2022/01/24 06:13:17;;;;;;;1.33;1.23;;;8.50;74.00;;;;;;980945;145;27691;-72
2022/01/24 06:15:44;;;;;;;1.37;1.00;;;8.50;74.00;;;;;;981158;145;27294;-72
2022/01/24 06:18:11;;;;;;;1.07;1.07;;;8.50;73.90;;;;;;979233;145;27762;-72
2022/01/24 06:20:37;;;;;;;1.23;1.10;;;8.50;73.90;;;;;;981613;145;27266;-72
2022/01/24 06:23:04;;;;;;;1.50;1.40;;;8.50;74.00;;;;;;981039;145;27613;-72
2022/01/24 06:25:30;;;;;;;2.07;1.50;;;8.50;73.90;;;;;;982661;145;27877;-72
2022/01/24 06:27:57;;;;;;;1.60;1.50;;;8.50;74.00;;;;;;981255;145;27212;-72
2022/01/24 06:30:24;;;;;;;2.70;1.43;;;8.50;73.90;;;;;;945007;151;27266;-72
2022/01/24 06:32:50;;;;;;;1.87;1.40;;;8.50;73.90;;;;;;932449;154;27280;-73
2022/01/24 06:35:17;;;;;;;3.50;1.87;;;8.50;73.90;;;;;;947683;151;27448;-74
2022/01/24 06:37:43;;;;;;;1.30;1.20;;;8.50;73.90;;;;;;960295;148;27393;-72
2022/01/24 06:40:10;;;;;;;1.40;1.30;;;8.50;73.90;;;;;;961710;148;27315;-72
2022/01/24 06:42:38;;;;;;;1.63;1.50;;;8.50;73.90;;;;;;961513;148;27854;-72
2022/01/24 06:45:03;;;;;;;1.40;1.30;;;8.50;73.90;;;;;;959113;148;27367;-72
2022/01/24 06:47:30;;;;;;;1.37;1.23;;;8.50;73.90;;;;;;959644;148;27348;-72
2022/01/24 06:49:56;;;;;;;2.80;1.50;;;8.50;73.90;;;;;;959203;148;27429;-72
2022/01/24 06:52:23;;;;;;;2.33;1.57;;;8.50;73.90;;;;;;957653;149;27264;-72
2022/01/24 06:54:49;;;;;;;1.30;1.30;;;8.50;73.90;;;;;;959555;149;27915;-73
2022/01/24 06:57:16;;;;;;;1.60;1.50;;;8.50;73.90;;;;;;957763;149;27350;-72
2022/01/24 06:59:43;;;;;;;2.50;1.67;;;8.50;73.90;;;;;;958411;148;27275;-72
2022/01/24 07:02:12;;;;;;;1.33;1.23;;;8.50;73.90;;;;;;958501;148;27414;-72
2022/01/24 07:04:43;;;;;;;1.53;1.00;;;8.50;73.90;;;;;;959097;149;27247;-72
2022/01/24 07:07:05;;;;;;;1.57;1.30;;;8.50;73.80;;;;;;957726;149;27318;-72
2022/01/24 07:09:32;;;;;;;1.47;1.30;;;8.50;73.80;;;;;;958076;149;27350;-72
2022/01/24 07:11:58;;;;;;;1.50;1.40;;;8.50;73.80;;;;;;957049;149;27346;-73
2022/01/24 07:14:25;;;;;;;2.97;1.57;;;8.50;73.80;;;;;;958523;148;27413;-73
2022/01/24 07:19:32;;;;;;;1.60;1.30;;;8.50;73.80;;;;;;959202;149;27406;-73
2022/01/24 07:21:59;;;;;;;1.37;1.27;;;8.50;73.90;;;;;;957122;149;27442;-73
2022/01/24 07:24:25;;;;;;;1.40;1.30;;;8.50;73.90;;;;;;958521;149;27340;-73
2022/01/24 07:26:52;;;;;;;1.60;1.50;;;8.50;73.90;;;;;;946012;150;27393;-73
2022/01/24 07:29:22;;;;;;;1.37;1.27;;;8.50;73.90;;;;;;960907;148;27294;-73
2022/01/24 07:31:48;;;;;;;1.50;1.20;;;8.60;73.90;;;;;;960982;148;27463;-73
2022/01/24 07:34:15;;;;;;;3.23;1.13;;;8.60;74.10;;;;;;960419;148;27329;-73
2022/01/24 07:36:41;;;;;;;1.20;1.20;;;8.60;73.90;;;;;;961163;148;27302;-73
2022/01/24 07:39:08;;;;;;;1.10;1.10;;;8.60;73.90;;;;;;960267;148;27265;-73
2022/01/24 07:41:42;;;;;;;1.40;1.30;;;8.60;74.00;;;;;;957816;148;27502;-73
2022/01/24 07:44:01;;;;;;;1.10;1.10;;;8.60;74.00;;;;;;957220;148;27320;-73
2022/01/24 07:46:28;;;;;;;1.47;1.17;;;8.60;73.90;;;;;;958649;148;27345;-73
2022/01/24 07:48:54;;;;;;;1.97;1.10;;;8.60;73.90;;;;;;958780;148;28459;-73
2022/01/24 07:51:21;;;;;;;2.37;1.50;;;8.70;74.10;;;;;;969516;147;27265;-73
2022/01/24 07:53:47;;;;;;;1.80;0.93;;;8.70;74.00;;;;;;971883;147;27801;-73
2022/01/24 07:56:14;;;;;;;1.30;1.20;;;8.70;74.00;;;;;;970692;147;27287;-73
2022/01/24 07:58:43;;;;;;;1.10;1.07;;;8.70;73.90;;;;;;969130;147;27460;-73
2022/01/24 08:01:08;;;;;;;1.20;1.10;;;8.70;73.90;;;;;;971725;147;27340;-73
2022/01/24 08:03:34;;;;;;;1.30;1.20;;;8.80;74.00;;;;;;969845;147;27295;-73
2022/01/24 08:06:00;;;;;;;1.57;1.47;;;8.80;73.90;;;;;;969315;147;27452;-73
2022/01/24 08:08:27;;;;;;;1.30;1.20;;;8.80;73.80;;;;;;970422;147;27291;-74
2022/01/24 08:10:53;;;;;;;4.60;1.40;;;8.80;73.80;;;;;;971019;147;27313;-73
2022/01/24 08:13:20;;;;;;;1.20;1.20;;;8.80;73.70;;;;;;969310;145;27361;-73
2022/01/24 08:15:47;;;;;;;1.37;1.27;;;8.80;73.80;;;;;;969535;147;27363;-73
2022/01/24 08:18:14;;;;;;;1.73;1.63;;;8.90;73.80;;;;;;969531;147;27425;-73
2022/01/24 08:20:41;;;;;;;1.20;1.20;;;8.90;73.70;;;;;;967582;145;27259;-73
2022/01/24 08:23:06;;;;;;;1.23;1.23;;;8.90;73.60;;;;;;969828;147;27338;-72
2022/01/24 08:25:33;;;;;;;1.47;1.37;;;8.90;73.60;;;;;;970314;147;27393;-73
2022/01/24 08:28:00;;;;;;;1.90;1.43;;;8.90;73.50;;;;;;969759;147;27408;-73
2022/01/24 08:30:29;;;;;;;1.00;1.00;;;8.90;73.60;;;;;;971188;145;27287;-73
2022/01/24 08:32:56;;;;;;;0.83;0.83;;;9.00;73.60;;;;;;968191;147;27430;-73
2022/01/24 08:35:22;;;;;;;1.30;1.20;;;8.90;73.50;;;;;;969310;147;27374;-73
2022/01/24 08:37:49;;;;;;;1.00;1.00;;;9.00;73.40;;;;;;969502;145;27380;-73
2022/01/24 08:40:24;;;;;;;0.93;0.93;;;9.00;73.30;;;;;;970222;147;27306;-73
2022/01/24 08:42:58;;;;;;;1.00;1.00;;;9.00;73.50;;;;;;970766;147;27358;-73
2022/01/24 08:48:05;;;;;;;1.20;1.10;;;9.00;73.30;;;;;;968545;147;27413;-73
2022/01/24 08:50:32;;;;;;;1.50;1.10;;;9.10;73.40;;;;;;971407;147;27342;-73
2022/01/24 08:53:03;;;;;;;1.97;1.00;;;9.10;73.40;;;;;;965650;148;27421;-73
2022/01/24 08:55:30;;;;;;;1.17;1.10;;;9.10;73.40;;;;;;963677;148;28216;-73
2022/01/24 08:57:57;;;;;;;2.43;1.20;;;9.10;73.40;;;;;;964088;148;27376;-73
2022/01/24 09:00:24;;;;;;;1.13;1.13;;;9.10;73.40;;;;;;964945;148;27419;-73
2022/01/24 09:02:50;;;;;;;2.00;1.73;;;9.10;73.40;;;;;;964734;148;27311;-73
2022/01/24 09:05:22;;;;;;;1.47;1.37;;;9.10;73.30;;;;;;965363;148;27451;-73
2022/01/24 09:07:46;;;;;;;2.57;1.00;;;9.20;73.40;;;;;;964532;148;27296;-73
2022/01/24 09:10:13;;;;;;;1.43;1.20;;;9.20;73.10;;;;;;964114;148;27326;-72
2022/01/24 09:12:42;;;;;;;1.93;1.20;;;9.20;73.10;;;;;;965129;148;27274;-73
2022/01/24 09:15:08;;;;;;;1.47;1.30;;;9.20;73.10;;;;;;962190;148;27377;-73
2022/01/24 09:17:35;;;;;;;1.30;1.20;;;9.20;73.10;;;;;;959855;148;27293;-73
2022/01/24 09:20:01;;;;;;;1.50;1.13;;;9.20;73.10;;;;;;964297;148;27439;-72
2022/01/24 09:22:28;;;;;;;1.43;1.33;;;9.20;73.10;;;;;;964237;148;27301;-73
2022/01/24 09:24:55;;;;;;;1.03;1.03;;;9.30;73.10;;;;;;965801;148;27382;-73
2022/01/24 09:27:21;;;;;;;2.50;1.10;;;9.30;73.00;;;;;;963196;148;27406;-72
2022/01/24 09:29:48;;;;;;;1.40;1.30;;;9.30;73.00;;;;;;964701;148;27317;-73
2022/01/24 09:32:14;;;;;;;1.37;1.27;;;9.30;73.00;;;;;;965856;148;27286;-73
2022/01/24 09:34:41;;;;;;;1.10;1.10;;;9.30;72.90;;;;;;965672;148;27305;-73
2022/01/24 09:37:07;;;;;;;2.13;1.40;;;9.30;72.90;;;;;;962323;145;27313;-72
2022/01/24 09:39:35;;;;;;;1.07;1.07;;;9.30;72.80;;;;;;967454;148;27276;-72
2022/01/24 09:42:01;;;;;;;1.20;1.10;;;9.40;72.90;;;;;;965328;145;27402;-72
2022/01/24 09:44:27;;;;;;;2.40;1.30;;;9.40;72.80;;;;;;960908;148;27341;-72
2022/01/24 09:46:54;;;;;;;1.23;1.13;;;9.40;72.80;;;;;;961076;145;27346;-72
2022/01/24 09:49:23;;;;;;;1.47;1.37;;;9.40;72.90;;;;;;963323;148;27244;-72
2022/01/24 09:51:50;;;;;;;2.60;1.50;;;9.40;72.90;;;;;;964999;148;27348;-72
2022/01/24 09:54:16;;;;;;;2.27;1.30;;;9.50;73.10;;;;;;946175;150;27271;-73
2022/01/24 09:56:43;;;;;;;1.30;1.20;;;9.50;73.10;;;;;;965114;147;27423;-73
2022/01/24 09:59:10;;;;;;;1.83;1.50;;;9.60;73.10;;;;;;966145;146;27314;-73
2022/01/24 10:01:36;;;;;;;1.40;1.30;;;9.60;73.10;;;;;;964068;147;27389;-73
2022/01/24 10:04:18;;;;;;;1.30;1.20;;;9.70;72.90;;;;;;967727;147;27315;-73
2022/01/24 10:07:11;;;;;;;1.50;1.37;;;9.70;72.70;;;;;;967851;146;27273;-73
2022/01/24 10:09:52;;;;;;;1.50;1.40;;;9.80;72.60;;;;;;967175;145;27341;-73
2022/01/24 10:12:33;;;;;;;1.50;1.40;;;9.80;72.50;;;;;;965798;147;27327;-73
2022/01/24 10:17:34;;;;;;;1.63;1.53;;;9.80;72.30;;;;;;967197;147;27391;-73
2022/01/24 10:20:22;;;;;;;1.90;1.47;;;9.90;72.40;;;;;;965198;147;27262;-73
2022/01/24 10:23:24;;;;;;;1.37;1.27;;;9.90;72.30;;;;;;966463;145;27760;-73
2022/01/24 10:25:49;;;;;;;3.00;1.70;;;9.90;71.70;;;;;;968525;145;27300;-73
2022/01/24 10:28:21;;;;;;;11.23;2.07;;;9.90;72.00;;;;;;967802;147;27409;-73
2022/01/24 10:30:48;;;;;;;1.80;1.40;;;9.90;71.90;;;;;;963025;147;27508;-73
2022/01/24 10:33:15;;;;;;;1.03;1.00;;;9.90;71.80;;;;;;965415;147;27751;-72
2022/01/24 10:35:46;;;;;;;1.23;1.20;;;9.90;71.80;;;;;;967207;147;27308;-73
2022/01/24 10:38:39;;;;;;;2.90;1.10;;;9.90;71.70;;;;;;967433;144;27387;-73
2022/01/24 10:41:16;;;;;;;1.80;1.13;;;9.90;71.70;;;;;;966227;147;27450;-73
2022/01/24 10:43:33;;;;;;;1.20;1.20;;;10.00;71.70;;;;;;965772;147;27409;-73
2022/01/24 10:46:00;;;;;;;1.50;1.10;;;9.90;71.70;;;;;;968039;147;28411;-72
2022/01/24 10:48:29;;;;;;;1.23;1.23;;;10.00;71.70;;;;;;967502;145;27296;-73
2022/01/24 10:51:08;;;;;;;1.40;1.30;;;10.00;71.70;;;;;;967602;145;27339;-72
2022/01/24 10:53:34;;;;;;;1.33;1.33;;;9.90;71.60;;;;;;969875;144;27361;-73
2022/01/24 10:56:01;;;;;;;1.97;1.87;;;10.00;71.50;;;;;;965457;147;27352;-73
2022/01/24 10:58:27;;;;;;;2.40;2.20;;;9.90;71.50;;;;;;968247;146;27397;-73
2022/01/24 11:00:54;;;;;;;2.73;2.37;;;10.00;71.50;;;;;;966223;147;27300;-73
2022/01/24 11:03:21;;;;;;;1.87;1.70;;;10.00;71.70;;;;;;966477;146;27447;-73
2022/01/24 11:05:47;;;;;;;2.67;1.80;;;10.00;71.50;;;;;;966141;147;27407;-73
2022/01/24 11:08:14;;;;;;;1.40;1.30;;;10.00;71.50;;;;;;968579;147;27336;-73
2022/01/24 11:10:40;;;;;;;1.30;1.20;;;10.00;71.50;;;;;;964470;147;27312;-73
2022/01/24 11:13:07;;;;;;;1.50;1.40;;;10.00;71.50;;;;;;965524;145;27444;-73
2022/01/24 11:15:34;;;;;;;2.10;2.00;;;10.00;71.50;;;;;;968387;147;27356;-73
2022/01/24 11:18:01;;;;;;;1.90;1.80;;;10.10;71.60;;;;;;966303;147;27446;-73
2022/01/24 11:20:31;;;;;;;1.70;1.60;;;10.10;71.70;;;;;;965634;145;27416;-73
2022/01/24 11:22:59;;;;;;;1.50;1.40;;;10.10;71.50;;;;;;967492;147;27321;-72
2022/01/24 11:25:20;;;;;;;2.13;1.43;;;10.10;71.40;;;;;;966393;147;27252;-73
2022/01/24 11:27:47;;;;;;;1.47;1.37;;;10.20;71.40;;;;;;967361;146;27740;-73
2022/01/24 11:30:16;;;;;;;1.23;1.20;;;10.20;71.40;;;;;;965459;147;27234;-73
2022/01/24 11:32:46;;;;;;;2.07;1.50;;;10.20;71.20;;;;;;966366;146;27317;-73
2022/01/24 11:35:11;;;;;;;1.57;1.47;;;10.20;71.20;;;;;;965601;147;28281;-73
2022/01/24 11:37:41;;;;;;;2.20;1.50;;;10.20;71.30;;;;;;966880;146;27410;-72
2022/01/24 11:40:17;;;;;;;1.63;1.53;;;10.20;71.40;;;;;;966386;146;27744;-73
2022/01/24 11:42:46;;;;;;;2.60;1.67;;;10.20;71.50;;;;;;961559;146;27309;-72
2022/01/24 11:45:13;;;;;;;4.87;2.80;;;10.30;71.50;;;;;;962203;147;27421;-73
2022/01/24 11:47:37;;;;;;;1.40;1.40;;;10.30;71.40;;;;;;961896;147;27354;-73
2022/01/24 11:50:25;;;;;;;1.73;1.50;;;10.30;71.40;;;;;;965229;147;28451;-73
2022/01/24 11:52:51;;;;;;;1.87;1.67;;;10.40;71.50;;;;;;967328;144;27317;-73
2022/01/24 11:55:31;;;;;;;1.53;1.43;;;10.40;71.40;;;;;;965649;148;27240;-73
2022/01/24 11:57:49;;;;;;;2.07;1.67;;;10.50;71.30;;;;;;961750;148;27310;-73
2022/01/24 12:00:13;;;;;;;1.40;1.33;;;10.50;71.20;;;;;;965486;148;27436;-73
2022/01/24 12:02:46;;;;;;;1.77;1.43;;;10.50;71.10;;;;;;959963;148;27755;-73
2022/01/24 12:05:15;;;;;;;2.10;1.57;;;10.50;70.90;;;;;;964200;148;27329;-73
2022/01/24 12:07:47;;;;;;;1.80;1.70;;;10.60;71.00;;;;;;964344;147;27296;-73
2022/01/24 12:10:42;;;;;;;2.03;1.57;;;10.60;71.00;;;;;;963080;148;27354;-73
2022/01/24 12:12:56;;;;;;;2.10;1.90;;;10.60;71.00;;;;;;955040;148;28198;-73
2022/01/24 12:15:48;;;;;;;1.43;1.40;;;10.60;70.90;;;;;;965508;148;27452;-73
2022/01/24 12:18:18;;;;;;;1.87;1.77;;;10.60;70.80;;;;;;963813;148;27632;-72
2022/01/24 12:20:47;;;;;;;1.50;1.43;;;10.60;70.90;;;;;;964164;148;27786;-73
2022/01/24 12:23:17;;;;;;;2.00;1.90;;;10.60;70.80;;;;;;965167;148;27298;-73
2022/01/24 12:25:58;;;;;;;1.70;1.60;;;10.60;70.80;;;;;;965168;148;28046;-73
2022/01/24 12:28:27;;;;;;;2.13;2.00;;;10.60;70.70;;;;;;965528;148;27227;-73
2022/01/24 12:31:02;;;;;;;1.77;1.63;;;10.70;70.70;;;;;;965665;148;27320;-73
2022/01/24 12:33:39;;;;;;;1.83;1.73;;;10.70;70.60;;;;;;964838;148;27338;-73
2022/01/24 12:36:04;;;;;;;1.73;1.60;;;10.70;71.20;;;;;;963796;148;28103;-73
2022/01/24 12:38:46;;;;;;;2.60;2.33;;;10.70;70.50;;;;;;963936;148;27250;-73
2022/01/24 12:41:17;;;;;;;2.00;1.70;;;10.70;70.30;;;;;;962352;148;27427;-73
2022/01/24 12:44:12;;;;;;;2.40;1.50;;;10.60;70.30;;;;;;965439;148;27426;-72
2022/01/24 12:46:25;;;;;;;2.00;1.90;;;10.60;70.30;;;;;;960152;148;27354;-73
2022/01/24 12:48:50;;;;;;;2.90;2.07;;;10.60;70.30;;;;;;963468;148;27293;-73
2022/01/24 12:51:18;;;;;;;1.70;1.60;;;10.60;70.30;;;;;;965536;148;27317;-73
2022/01/24 12:53:43;;;;;;;3.53;2.03;;;10.60;70.20;;;;;;964578;144;27353;-73
2022/01/24 12:56:14;;;;;;;4.03;1.90;;;10.60;70.30;;;;;;964117;148;27336;-73
2022/01/24 12:58:42;;;;;;;2.03;1.83;;;10.60;70.30;;;;;;965660;148;27401;-73
2022/01/24 13:01:24;;;;;;;2.80;1.80;;;10.60;70.20;;;;;;964847;148;27303;-73
2022/01/24 13:04:08;;;;;;;2.67;2.23;;;10.50;70.10;;;;;;963895;148;27431;-73
2022/01/24 13:06:32;;;;;;;3.53;2.57;;;10.50;70.10;;;;;;964510;148;27421;-73
2022/01/24 13:09:05;;;;;;;3.00;2.20;;;10.50;70.00;;;;;;965829;148;27394;-73
2022/01/24 13:11:31;;;;;;;2.50;2.30;;;10.40;70.00;;;;;;962793;148;27343;-73
2022/01/24 13:14:07;;;;;;;2.20;2.00;;;10.40;70.10;;;;;;965141;148;27337;-72
2022/01/24 13:22:29;;;;;;;2.57;2.37;;;10.40;70.10;;;;;;966683;148;27336;-73
2022/01/24 13:25:12;;;;;;;3.50;2.70;;;10.30;70.20;;;;;;964608;148;27463;-73
2022/01/24 13:27:44;;;;;;;2.50;2.40;;;10.30;70.30;;;;;;962624;148;27339;-73
2022/01/24 13:30:11;;;;;;;2.37;2.10;;;10.30;70.30;;;;;;963518;148;27226;-73
2022/01/24 13:32:50;;;;;;;1.83;1.73;;;10.20;70.40;;;;;;964104;148;27827;-73
2022/01/24 13:35:16;;;;;;;2.17;2.07;;;10.20;70.50;;;;;;964570;148;27985;-73
2022/01/24 13:37:43;;;;;;;2.43;2.00;;;10.20;70.60;;;;;;964691;148;27362;-72
2022/01/24 13:40:09;;;;;;;2.63;2.43;;;10.20;70.60;;;;;;966727;148;27414;-73
2022/01/24 13:42:36;;;;;;;3.53;2.20;;;10.20;70.50;;;;;;964747;148;27752;-73
2022/01/24 13:45:03;;;;;;;2.30;2.20;;;10.30;70.60;;;;;;962405;148;27346;-73
2022/01/24 13:47:32;;;;;;;4.47;2.43;;;10.30;70.60;;;;;;963776;148;27857;-73
2022/01/24 13:49:58;;;;;;;2.27;2.17;;;10.30;70.70;;;;;;967412;145;27412;-73
2022/01/24 13:52:25;;;;;;;5.93;2.60;;;10.30;70.60;;;;;;964438;148;27418;-72
2022/01/24 13:54:51;;;;;;;2.60;2.40;;;10.30;70.30;;;;;;965997;144;27328;-73
2022/01/24 13:57:18;;;;;;;2.17;2.00;;;10.30;70.30;;;;;;966458;147;27317;-72
2022/01/24 13:59:45;;;;;;;2.47;2.27;;;10.30;70.30;;;;;;968597;146;27323;-73
2022/01/24 14:02:19;;;;;;;2.60;2.40;;;10.30;70.30;;;;;;968026;147;27249;-72
2022/01/24 14:04:48;;;;;;;2.90;2.10;;;10.30;70.30;;;;;;967402;147;27313;-72
2022/01/24 14:07:21;;;;;;;2.47;2.27;;;10.20;70.40;;;;;;964543;147;27872;-73
2022/01/24 14:09:53;;;;;;;2.87;2.27;;;10.20;70.40;;;;;;968548;145;27382;-73
2022/01/24 14:12:24;;;;;;;2.40;2.20;;;10.20;70.40;;;;;;967089;147;27438;-73
2022/01/24 14:15:07;;;;;;;3.07;2.23;;;10.20;70.60;;;;;;967452;147;27332;-72
2022/01/24 14:17:38;;;;;;;2.93;2.70;;;10.20;70.70;;;;;;963196;147;27893;-73
2022/01/24 14:20:00;;;;;;;2.80;2.60;;;10.20;70.70;;;;;;964323;145;27418;-73
2022/01/24 14:22:44;;;;;;;2.37;2.23;;;10.20;70.60;;;;;;963792;145;27334;-72
2022/01/24 14:25:21;;;;;;;2.40;2.03;;;10.30;70.70;;;;;;965471;147;27277;-73
2022/01/24 14:27:46;;;;;;;3.17;2.10;;;10.20;70.60;;;;;;966290;147;27452;-73
2022/01/24 14:30:21;;;;;;;5.67;2.47;;;10.20;70.50;;;;;;966367;147;27401;-73
2022/01/24 14:33:26;;;;;;;2.50;2.30;;;10.20;70.40;;;;;;966189;147;27839;-73
2022/01/24 14:35:58;;;;;;;3.83;2.57;;;10.20;70.60;;;;;;947437;147;27460;-73
2022/01/24 14:38:37;;;;;;;2.60;2.40;;;10.20;70.60;;;;;;944952;147;27329;-73
2022/01/24 14:41:14;;;;;;;2.50;2.33;;;10.20;70.60;;;;;;947840;147;27386;-73
2022/01/24 14:46:24;;;;;;;6.03;3.20;;;10.20;70.60;;;;;;949559;147;27422;-73